Airfield :
LOGIN :

Register | Disclaimer

   EN    FR    IT 

 










Legend :    VFR   Marginal VFR   IFR   Intensive IFR   Very Intensive IFR
Visi :
Ceiling :
>= 8 km
>= 3000ft
5 to 8 km
1000 to 3000 ft
1500m to 5 km
500 to 1000 ft
800 to 1500m
200 to 500 ft
< 800m
< 200 ft
Symbols :   Thunderstorms  Fog  Heavy snow  Heavy precipitations  Wind > 20 kt
SIGMETs :     Misc.  Thunderstorms  Icing  Turbulence  Mountain Waves  Volcanic Ashes






- Airport Elevation : 648 ft
- IATA code : INI


LYNI - Nis Constantine

CURRENT METAR :
  • 261530Z 09005KT CAVOK 12/03 Q1020 NOSIG

EXPIRED METARs :
  • 261500Z 07005KT CAVOK 13/03 Q1020 NOSIG
  • 261430Z 03001KT CAVOK 13/02 Q1021 NOSIG
  • 261400Z VRB01KT CAVOK 14/02 Q1021 NOSIG
  • 261330Z 35003KT 310V040 CAVOK 14/02 Q1021 NOSIG
  • 261300Z VRB02KT CAVOK 14/02 Q1021 NOSIG

TAF TAF LYNI
Valid from the 26 at 12:00 until the 27 at 12:00 UTC


261100Z 2612/2712 10004KT CAVOK TX12/2613Z TN05/2706Z
TEMPO 2618/2621 4000 BR
BECMG 2621/2623 3000 -RA BR BKN015 BKN027



MET'MAP, your aeronautical weather chart ! - Copyright ORBIFLY December 2007 - Disclaimer

ORBIFLY MET'MAP TEAM :

Programming & Development : Alexandra Zaïnal
Concept & original design : Baudouin d'Aumeries
Assistance for programming : Marc-Olivier Méhu
Technical & hardware support : Manuel Goepfert

Contact : metmap@orbifly.com




SOURCES & CREDITS :

   NOAA